sensor_id;sensor_type;location;lat;lon;timestamp;P1;durP1;ratioP1;P2;durP2;ratioP2
20527;SDS011;23612;50.894;10.700;2024-03-02T00:00:24;32.40;;;19.73;;
20527;SDS011;23612;50.894;10.700;2024-03-02T00:02:51;37.17;;;20.75;;
20527;SDS011;23612;50.894;10.700;2024-03-02T00:05:18;36.50;;;21.58;;
20527;SDS011;23612;50.894;10.700;2024-03-02T00:07:45;40.35;;;22.80;;
20527;SDS011;23612;50.894;10.700;2024-03-02T00:10:20;41.50;;;23.30;;
20527;SDS011;23612;50.894;10.700;2024-03-02T00:13:00;37.13;;;22.70;;
20527;SDS011;23612;50.894;10.700;2024-03-02T00:15:37;37.33;;;22.90;;
20527;SDS011;23612;50.894;10.700;2024-03-02T00:18:12;37.88;;;23.17;;
20527;SDS011;23612;50.894;10.700;2024-03-02T00:20:43;38.53;;;23.83;;
20527;SDS011;23612;50.894;10.700;2024-03-02T00:23:09;39.17;;;22.83;;
20527;SDS011;23612;50.894;10.700;2024-03-02T00:25:40;43.95;;;24.42;;
20527;SDS011;23612;50.894;10.700;2024-03-02T00:28:14;39.75;;;23.40;;
20527;SDS011;23612;50.894;10.700;2024-03-02T00:30:52;40.97;;;23.17;;
20527;SDS011;23612;50.894;10.700;2024-03-02T00:33:26;38.85;;;23.60;;
20527;SDS011;23612;50.894;10.700;2024-03-02T00:35:53;36.30;;;22.77;;
20527;SDS011;23612;50.894;10.700;2024-03-02T00:38:18;37.95;;;22.27;;
20527;SDS011;23612;50.894;10.700;2024-03-02T00:40:44;40.47;;;23.35;;
20527;SDS011;23612;50.894;10.700;2024-03-02T00:43:20;40.47;;;23.55;;
20527;SDS011;23612;50.894;10.700;2024-03-02T00:46:37;42.65;;;24.30;;
20527;SDS011;23612;50.894;10.700;2024-03-02T00:49:25;39.30;;;23.45;;
20527;SDS011;23612;50.894;10.700;2024-03-02T00:51:51;42.80;;;24.45;;
20527;SDS011;23612;50.894;10.700;2024-03-02T00:54:19;41.00;;;23.45;;
20527;SDS011;23612;50.894;10.700;2024-03-02T00:56:50;40.80;;;23.08;;
20527;SDS011;23612;50.894;10.700;2024-03-02T00:59:17;41.60;;;23.85;;
20527;SDS011;23612;50.894;10.700;2024-03-02T01:01:42;39.58;;;23.92;;
20527;SDS011;23612;50.894;10.700;2024-03-02T01:04:09;37.28;;;22.23;;
20527;SDS011;23612;50.894;10.700;2024-03-02T01:06:34;41.45;;;23.60;;
20527;SDS011;23612;50.894;10.700;2024-03-02T01:09:00;41.15;;;23.80;;
20527;SDS011;23612;50.894;10.700;2024-03-02T01:11:27;38.20;;;23.48;;
20527;SDS011;23612;50.894;10.700;2024-03-02T01:13:53;41.50;;;22.40;;
20527;SDS011;23612;50.894;10.700;2024-03-02T01:16:18;38.58;;;22.33;;
20527;SDS011;23612;50.894;10.700;2024-03-02T01:18:44;39.20;;;22.75;;
20527;SDS011;23612;50.894;10.700;2024-03-02T01:21:09;39.05;;;22.52;;
20527;SDS011;23612;50.894;10.700;2024-03-02T01:23:35;34.83;;;20.30;;
20527;SDS011;23612;50.894;10.700;2024-03-02T01:26:00;33.15;;;20.25;;
20527;SDS011;23612;50.894;10.700;2024-03-02T01:28:26;32.40;;;18.27;;
20527;SDS011;23612;50.894;10.700;2024-03-02T01:30:51;27.75;;;16.33;;
20527;SDS011;23612;50.894;10.700;2024-03-02T01:33:17;28.77;;;16.90;;
20527;SDS011;23612;50.894;10.700;2024-03-02T01:35:43;30.33;;;15.73;;
20527;SDS011;23612;50.894;10.700;2024-03-02T01:38:08;27.70;;;16.05;;
20527;SDS011;23612;50.894;10.700;2024-03-02T01:40:34;25.52;;;15.35;;
20527;SDS011;23612;50.894;10.700;2024-03-02T01:43:01;25.77;;;15.70;;
20527;SDS011;23612;50.894;10.700;2024-03-02T01:45:27;32.00;;;16.17;;
20527;SDS011;23612;50.894;10.700;2024-03-02T01:47:53;28.10;;;16.10;;
20527;SDS011;23612;50.894;10.700;2024-03-02T01:50:28;26.70;;;15.90;;
20527;SDS011;23612;50.894;10.700;2024-03-02T01:52:55;26.75;;;15.63;;
20527;SDS011;23612;50.894;10.700;2024-03-02T01:55:21;30.70;;;17.48;;
20527;SDS011;23612;50.894;10.700;2024-03-02T01:57:47;32.53;;;16.67;;
20527;SDS011;23612;50.894;10.700;2024-03-02T02:00:17;29.60;;;16.00;;
20527;SDS011;23612;50.894;10.700;2024-03-02T02:02:46;29.35;;;16.40;;
20527;SDS011;23612;50.894;10.700;2024-03-02T02:05:17;27.33;;;16.20;;
20527;SDS011;23612;50.894;10.700;2024-03-02T02:07:42;30.73;;;17.27;;
20527;SDS011;23612;50.894;10.700;2024-03-02T02:10:08;30.75;;;17.17;;
20527;SDS011;23612;50.894;10.700;2024-03-02T02:12:37;36.13;;;18.67;;
20527;SDS011;23612;50.894;10.700;2024-03-02T02:15:03;30.25;;;18.15;;
20527;SDS011;23612;50.894;10.700;2024-03-02T02:17:46;35.42;;;19.05;;
20527;SDS011;23612;50.894;10.700;2024-03-02T02:20:11;35.85;;;19.85;;
20527;SDS011;23612;50.894;10.700;2024-03-02T02:22:36;37.13;;;19.52;;
20527;SDS011;23612;50.894;10.700;2024-03-02T02:25:02;37.17;;;18.92;;
20527;SDS011;23612;50.894;10.700;2024-03-02T02:27:28;36.60;;;20.70;;
20527;SDS011;23612;50.894;10.700;2024-03-02T02:29:53;37.17;;;20.40;;
20527;SDS011;23612;50.894;10.700;2024-03-02T02:32:20;35.47;;;20.48;;
20527;SDS011;23612;50.894;10.700;2024-03-02T02:34:45;43.28;;;22.17;;
20527;SDS011;23612;50.894;10.700;2024-03-02T02:37:11;42.53;;;23.25;;
20527;SDS011;23612;50.894;10.700;2024-03-02T02:39:36;45.22;;;24.77;;
20527;SDS011;23612;50.894;10.700;2024-03-02T02:42:02;48.17;;;25.48;;
20527;SDS011;23612;50.894;10.700;2024-03-02T02:44:27;44.47;;;25.08;;
20527;SDS011;23612;50.894;10.700;2024-03-02T02:46:53;48.67;;;26.15;;
20527;SDS011;23612;50.894;10.700;2024-03-02T02:49:18;52.20;;;26.63;;
20527;SDS011;23612;50.894;10.700;2024-03-02T02:51:44;48.63;;;26.95;;
20527;SDS011;23612;50.894;10.700;2024-03-02T02:54:09;49.15;;;27.42;;
20527;SDS011;23612;50.894;10.700;2024-03-02T02:56:35;50.97;;;26.98;;
20527;SDS011;23612;50.894;10.700;2024-03-02T02:59:00;57.33;;;30.15;;
20527;SDS011;23612;50.894;10.700;2024-03-02T03:01:26;55.78;;;29.88;;
20527;SDS011;23612;50.894;10.700;2024-03-02T03:03:51;56.83;;;30.38;;
20527;SDS011;23612;50.894;10.700;2024-03-02T03:06:17;58.63;;;30.13;;
20527;SDS011;23612;50.894;10.700;2024-03-02T03:08:42;54.08;;;30.65;;
20527;SDS011;23612;50.894;10.700;2024-03-02T03:11:08;58.25;;;30.20;;
20527;SDS011;23612;50.894;10.700;2024-03-02T03:13:33;61.67;;;30.08;;
20527;SDS011;23612;50.894;10.700;2024-03-02T03:15:59;57.22;;;30.58;;
20527;SDS011;23612;50.894;10.700;2024-03-02T03:18:24;52.75;;;29.15;;
20527;SDS011;23612;50.894;10.700;2024-03-02T03:20:50;65.07;;;31.38;;
20527;SDS011;23612;50.894;10.700;2024-03-02T03:23:15;62.28;;;30.75;;
20527;SDS011;23612;50.894;10.700;2024-03-02T03:25:42;58.80;;;30.77;;
20527;SDS011;23612;50.894;10.700;2024-03-02T03:28:08;58.83;;;30.65;;
20527;SDS011;23612;50.894;10.700;2024-03-02T03:30:35;54.88;;;29.75;;
20527;SDS011;23612;50.894;10.700;2024-03-02T03:33:04;61.35;;;30.90;;
20527;SDS011;23612;50.894;10.700;2024-03-02T03:35:33;58.03;;;29.60;;
20527;SDS011;23612;50.894;10.700;2024-03-02T03:37:59;56.40;;;30.33;;
20527;SDS011;23612;50.894;10.700;2024-03-02T03:40:25;56.63;;;29.13;;
20527;SDS011;23612;50.894;10.700;2024-03-02T03:42:50;52.75;;;27.33;;
20527;SDS011;23612;50.894;10.700;2024-03-02T03:45:16;56.95;;;28.92;;
20527;SDS011;23612;50.894;10.700;2024-03-02T03:47:42;50.13;;;27.42;;
20527;SDS011;23612;50.894;10.700;2024-03-02T03:50:08;53.13;;;28.20;;
20527;SDS011;23612;50.894;10.700;2024-03-02T03:52:34;55.58;;;28.02;;
20527;SDS011;23612;50.894;10.700;2024-03-02T03:54:59;54.85;;;29.20;;
20527;SDS011;23612;50.894;10.700;2024-03-02T03:57:25;53.47;;;28.35;;
20527;SDS011;23612;50.894;10.700;2024-03-02T03:59:51;50.65;;;26.50;;
20527;SDS011;23612;50.894;10.700;2024-03-02T04:02:17;43.67;;;22.38;;
20527;SDS011;23612;50.894;10.700;2024-03-02T04:04:42;41.95;;;23.00;;
20527;SDS011;23612;50.894;10.700;2024-03-02T04:07:08;44.67;;;23.08;;
20527;SDS011;23612;50.894;10.700;2024-03-02T04:09:34;36.25;;;21.63;;
20527;SDS011;23612;50.894;10.700;2024-03-02T04:11:59;38.72;;;21.20;;
20527;SDS011;23612;50.894;10.700;2024-03-02T04:14:25;38.40;;;22.98;;
20527;SDS011;23612;50.894;10.700;2024-03-02T04:16:50;40.33;;;22.60;;
20527;SDS011;23612;50.894;10.700;2024-03-02T04:19:16;41.90;;;21.67;;
20527;SDS011;23612;50.894;10.700;2024-03-02T04:21:42;39.58;;;24.20;;
20527;SDS011;23612;50.894;10.700;2024-03-02T04:24:07;40.90;;;23.55;;
20527;SDS011;23612;50.894;10.700;2024-03-02T04:26:33;41.80;;;24.00;;
20527;SDS011;23612;50.894;10.700;2024-03-02T04:28:58;42.65;;;23.60;;
20527;SDS011;23612;50.894;10.700;2024-03-02T04:31:24;42.33;;;24.33;;
20527;SDS011;23612;50.894;10.700;2024-03-02T04:33:49;44.70;;;23.25;;
20527;SDS011;23612;50.894;10.700;2024-03-02T04:36:15;43.17;;;23.55;;
20527;SDS011;23612;50.894;10.700;2024-03-02T04:38:40;41.88;;;23.42;;
20527;SDS011;23612;50.894;10.700;2024-03-02T04:41:06;44.33;;;24.45;;
20527;SDS011;23612;50.894;10.700;2024-03-02T04:43:32;43.70;;;24.08;;
20527;SDS011;23612;50.894;10.700;2024-03-02T04:45:58;40.33;;;23.08;;
20527;SDS011;23612;50.894;10.700;2024-03-02T04:48:24;42.53;;;22.75;;
20527;SDS011;23612;50.894;10.700;2024-03-02T04:50:49;37.78;;;21.77;;
20527;SDS011;23612;50.894;10.700;2024-03-02T04:53:15;40.05;;;21.90;;
20527;SDS011;23612;50.894;10.700;2024-03-02T04:55:40;36.85;;;20.45;;
20527;SDS011;23612;50.894;10.700;2024-03-02T04:58:06;40.05;;;21.50;;
20527;SDS011;23612;50.894;10.700;2024-03-02T05:00:31;37.47;;;20.42;;
20527;SDS011;23612;50.894;10.700;2024-03-02T05:02:57;35.45;;;20.42;;
20527;SDS011;23612;50.894;10.700;2024-03-02T05:05:23;37.20;;;20.17;;
20527;SDS011;23612;50.894;10.700;2024-03-02T05:07:48;35.42;;;19.75;;
20527;SDS011;23612;50.894;10.700;2024-03-02T05:10:14;38.20;;;20.13;;
20527;SDS011;23612;50.894;10.700;2024-03-02T05:12:39;33.70;;;18.20;;
20527;SDS011;23612;50.894;10.700;2024-03-02T05:15:08;31.70;;;17.25;;
20527;SDS011;23612;50.894;10.700;2024-03-02T05:17:39;28.83;;;16.10;;
20527;SDS011;23612;50.894;10.700;2024-03-02T05:20:05;35.28;;;18.15;;
20527;SDS011;23612;50.894;10.700;2024-03-02T05:22:33;31.55;;;17.85;;
20527;SDS011;23612;50.894;10.700;2024-03-02T05:24:58;30.67;;;17.48;;
20527;SDS011;23612;50.894;10.700;2024-03-02T05:27:25;29.63;;;16.88;;
20527;SDS011;23612;50.894;10.700;2024-03-02T05:29:51;30.42;;;17.05;;
20527;SDS011;23612;50.894;10.700;2024-03-02T05:32:16;31.15;;;17.48;;
20527;SDS011;23612;50.894;10.700;2024-03-02T05:34:42;29.52;;;16.92;;
20527;SDS011;23612;50.894;10.700;2024-03-02T05:37:07;32.05;;;16.88;;
20527;SDS011;23612;50.894;10.700;2024-03-02T05:39:33;24.33;;;14.70;;
20527;SDS011;23612;50.894;10.700;2024-03-02T05:41:59;27.10;;;16.08;;
20527;SDS011;23612;50.894;10.700;2024-03-02T05:44:24;26.70;;;15.48;;
20527;SDS011;23612;50.894;10.700;2024-03-02T05:46:49;28.40;;;16.23;;
20527;SDS011;23612;50.894;10.700;2024-03-02T05:49:15;25.02;;;15.55;;
20527;SDS011;23612;50.894;10.700;2024-03-02T05:51:41;30.50;;;16.35;;
20527;SDS011;23612;50.894;10.700;2024-03-02T05:54:06;27.02;;;16.33;;
20527;SDS011;23612;50.894;10.700;2024-03-02T05:56:32;27.58;;;16.95;;
20527;SDS011;23612;50.894;10.700;2024-03-02T05:58:57;27.17;;;15.75;;
20527;SDS011;23612;50.894;10.700;2024-03-02T06:01:39;22.98;;;14.85;;
20527;SDS011;23612;50.894;10.700;2024-03-02T06:04:05;26.63;;;14.93;;
20527;SDS011;23612;50.894;10.700;2024-03-02T06:06:31;24.48;;;15.15;;
20527;SDS011;23612;50.894;10.700;2024-03-02T06:08:58;22.60;;;13.93;;
20527;SDS011;23612;50.894;10.700;2024-03-02T06:11:24;24.70;;;14.77;;
20527;SDS011;23612;50.894;10.700;2024-03-02T06:13:50;26.08;;;15.27;;
20527;SDS011;23612;50.894;10.700;2024-03-02T06:16:15;25.90;;;14.27;;
20527;SDS011;23612;50.894;10.700;2024-03-02T06:18:41;29.38;;;14.27;;
20527;SDS011;23612;50.894;10.700;2024-03-02T06:21:06;24.08;;;13.68;;
20527;SDS011;23612;50.894;10.700;2024-03-02T06:23:32;22.73;;;13.45;;
20527;SDS011;23612;50.894;10.700;2024-03-02T06:25:57;21.85;;;14.18;;
20527;SDS011;23612;50.894;10.700;2024-03-02T06:28:23;27.50;;;14.50;;
20527;SDS011;23612;50.894;10.700;2024-03-02T06:30:48;20.23;;;12.80;;
20527;SDS011;23612;50.894;10.700;2024-03-02T06:33:14;26.13;;;14.20;;
20527;SDS011;23612;50.894;10.700;2024-03-02T06:35:39;27.05;;;14.55;;
20527;SDS011;23612;50.894;10.700;2024-03-02T06:38:06;39.70;;;22.90;;
20527;SDS011;23612;50.894;10.700;2024-03-02T06:40:31;25.42;;;15.35;;
20527;SDS011;23612;50.894;10.700;2024-03-02T06:42:56;26.77;;;17.45;;
20527;SDS011;23612;50.894;10.700;2024-03-02T06:45:22;31.10;;;17.83;;
20527;SDS011;23612;50.894;10.700;2024-03-02T06:47:47;31.52;;;19.23;;
20527;SDS011;23612;50.894;10.700;2024-03-02T06:50:13;35.70;;;20.00;;
20527;SDS011;23612;50.894;10.700;2024-03-02T06:52:38;36.38;;;22.38;;
20527;SDS011;23612;50.894;10.700;2024-03-02T06:55:04;35.58;;;21.75;;
20527;SDS011;23612;50.894;10.700;2024-03-02T06:57:30;33.08;;;19.05;;
20527;SDS011;23612;50.894;10.700;2024-03-02T06:59:55;34.13;;;17.48;;
20527;SDS011;23612;50.894;10.700;2024-03-02T07:02:23;29.50;;;18.10;;
20527;SDS011;23612;50.894;10.700;2024-03-02T07:04:51;31.48;;;17.83;;
20527;SDS011;23612;50.894;10.700;2024-03-02T07:07:17;25.98;;;15.95;;
20527;SDS011;23612;50.894;10.700;2024-03-02T07:09:43;31.45;;;18.13;;
20527;SDS011;23612;50.894;10.700;2024-03-02T07:12:08;28.35;;;17.08;;
20527;SDS011;23612;50.894;10.700;2024-03-02T07:14:34;28.25;;;17.83;;
20527;SDS011;23612;50.894;10.700;2024-03-02T07:17:21;47.65;;;29.67;;
20527;SDS011;23612;50.894;10.700;2024-03-02T07:19:47;29.58;;;18.38;;
20527;SDS011;23612;50.894;10.700;2024-03-02T07:22:13;34.20;;;19.08;;
20527;SDS011;23612;50.894;10.700;2024-03-02T07:24:42;26.27;;;16.80;;
20527;SDS011;23612;50.894;10.700;2024-03-02T07:27:08;49.10;;;36.72;;
20527;SDS011;23612;50.894;10.700;2024-03-02T07:29:34;27.92;;;18.75;;
20527;SDS011;23612;50.894;10.700;2024-03-02T07:32:00;28.02;;;17.63;;
20527;SDS011;23612;50.894;10.700;2024-03-02T07:34:26;22.02;;;14.55;;
20527;SDS011;23612;50.894;10.700;2024-03-02T07:36:51;24.80;;;18.25;;
20527;SDS011;23612;50.894;10.700;2024-03-02T07:39:17;23.92;;;15.73;;
20527;SDS011;23612;50.894;10.700;2024-03-02T07:41:42;22.65;;;14.55;;
20527;SDS011;23612;50.894;10.700;2024-03-02T07:44:10;18.13;;;12.88;;
20527;SDS011;23612;50.894;10.700;2024-03-02T07:46:39;18.95;;;12.82;;
20527;SDS011;23612;50.894;10.700;2024-03-02T07:49:08;18.52;;;12.18;;
20527;SDS011;23612;50.894;10.700;2024-03-02T07:51:34;18.13;;;11.80;;
20527;SDS011;23612;50.894;10.700;2024-03-02T07:54:00;17.27;;;11.98;;
20527;SDS011;23612;50.894;10.700;2024-03-02T07:56:25;17.15;;;12.43;;
20527;SDS011;23612;50.894;10.700;2024-03-02T07:58:51;15.82;;;11.27;;
20527;SDS011;23612;50.894;10.700;2024-03-02T08:01:17;19.15;;;13.45;;
20527;SDS011;23612;50.894;10.700;2024-03-02T08:03:43;16.80;;;12.52;;
20527;SDS011;23612;50.894;10.700;2024-03-02T08:06:16;16.40;;;11.65;;
20527;SDS011;23612;50.894;10.700;2024-03-02T08:08:42;21.55;;;14.00;;
20527;SDS011;23612;50.894;10.700;2024-03-02T08:11:08;20.50;;;13.68;;
20527;SDS011;23612;50.894;10.700;2024-03-02T08:13:33;20.48;;;12.68;;
20527;SDS011;23612;50.894;10.700;2024-03-02T08:15:58;19.50;;;12.68;;
20527;SDS011;23612;50.894;10.700;2024-03-02T08:18:24;21.65;;;12.85;;
20527;SDS011;23612;50.894;10.700;2024-03-02T08:20:50;20.75;;;12.65;;
20527;SDS011;23612;50.894;10.700;2024-03-02T08:23:15;23.00;;;14.05;;
20527;SDS011;23612;50.894;10.700;2024-03-02T08:25:42;21.15;;;13.55;;
20527;SDS011;23612;50.894;10.700;2024-03-02T08:28:07;20.40;;;13.77;;
20527;SDS011;23612;50.894;10.700;2024-03-02T08:30:33;22.52;;;13.52;;
20527;SDS011;23612;50.894;10.700;2024-03-02T08:32:58;22.52;;;14.32;;
20527;SDS011;23612;50.894;10.700;2024-03-02T08:35:24;29.40;;;18.02;;
20527;SDS011;23612;50.894;10.700;2024-03-02T08:37:50;27.85;;;18.38;;
20527;SDS011;23612;50.894;10.700;2024-03-02T08:40:15;35.90;;;22.92;;
20527;SDS011;23612;50.894;10.700;2024-03-02T08:42:41;35.08;;;21.52;;
20527;SDS011;23612;50.894;10.700;2024-03-02T08:45:07;39.55;;;25.23;;
20527;SDS011;23612;50.894;10.700;2024-03-02T08:47:33;36.83;;;24.33;;
20527;SDS011;23612;50.894;10.700;2024-03-02T08:49:59;33.08;;;23.42;;
20527;SDS011;23612;50.894;10.700;2024-03-02T08:52:25;18.77;;;12.70;;
20527;SDS011;23612;50.894;10.700;2024-03-02T08:54:52;17.10;;;11.70;;
20527;SDS011;23612;50.894;10.700;2024-03-02T08:57:17;20.45;;;13.73;;
20527;SDS011;23612;50.894;10.700;2024-03-02T08:59:43;21.27;;;13.20;;
20527;SDS011;23612;50.894;10.700;2024-03-02T09:02:09;33.80;;;20.00;;
20527;SDS011;23612;50.894;10.700;2024-03-02T09:04:35;26.42;;;16.17;;
20527;SDS011;23612;50.894;10.700;2024-03-02T09:07:00;32.28;;;18.13;;
20527;SDS011;23612;50.894;10.700;2024-03-02T09:09:26;23.02;;;15.00;;
20527;SDS011;23612;50.894;10.700;2024-03-02T09:11:51;17.05;;;11.80;;
20527;SDS011;23612;50.894;10.700;2024-03-02T09:14:19;20.30;;;12.55;;
20527;SDS011;23612;50.894;10.700;2024-03-02T09:16:45;17.70;;;12.05;;
20527;SDS011;23612;50.894;10.700;2024-03-02T09:19:11;16.63;;;11.05;;
20527;SDS011;23612;50.894;10.700;2024-03-02T09:21:36;14.23;;;10.25;;
20527;SDS011;23612;50.894;10.700;2024-03-02T09:24:02;13.98;;;10.70;;
20527;SDS011;23612;50.894;10.700;2024-03-02T09:26:28;15.52;;;11.00;;
20527;SDS011;23612;50.894;10.700;2024-03-02T09:28:54;15.77;;;11.63;;
20527;SDS011;23612;50.894;10.700;2024-03-02T09:31:19;21.00;;;12.93;;
20527;SDS011;23612;50.894;10.700;2024-03-02T09:33:45;16.50;;;11.93;;
20527;SDS011;23612;50.894;10.700;2024-03-02T09:36:20;13.75;;;11.05;;
20527;SDS011;23612;50.894;10.700;2024-03-02T09:38:47;24.70;;;11.05;;
20527;SDS011;23612;50.894;10.700;2024-03-02T09:41:12;16.95;;;12.20;;
20527;SDS011;23612;50.894;10.700;2024-03-02T09:43:39;18.73;;;14.35;;
20527;SDS011;23612;50.894;10.700;2024-03-02T09:46:05;15.48;;;11.57;;
20527;SDS011;23612;50.894;10.700;2024-03-02T09:48:35;13.65;;;10.68;;
20527;SDS011;23612;50.894;10.700;2024-03-02T09:51:00;10.95;;;8.27;;
20527;SDS011;23612;50.894;10.700;2024-03-02T09:53:29;11.25;;;8.75;;
20527;SDS011;23612;50.894;10.700;2024-03-02T09:55:57;15.82;;;9.05;;
20527;SDS011;23612;50.894;10.700;2024-03-02T09:58:24;10.25;;;8.32;;
20527;SDS011;23612;50.894;10.700;2024-03-02T10:00:49;11.75;;;8.40;;
20527;SDS011;23612;50.894;10.700;2024-03-02T10:03:15;9.85;;;7.55;;
20527;SDS011;23612;50.894;10.700;2024-03-02T10:05:41;8.88;;;7.05;;
20527;SDS011;23612;50.894;10.700;2024-03-02T10:08:07;9.68;;;7.53;;
20527;SDS011;23612;50.894;10.700;2024-03-02T10:10:36;8.77;;;6.85;;
20527;SDS011;23612;50.894;10.700;2024-03-02T10:13:08;9.57;;;6.85;;
20527;SDS011;23612;50.894;10.700;2024-03-02T10:15:35;7.13;;;6.13;;
20527;SDS011;23612;50.894;10.700;2024-03-02T10:18:02;8.60;;;6.40;;
20527;SDS011;23612;50.894;10.700;2024-03-02T10:20:33;8.10;;;5.43;;
20527;SDS011;23612;50.894;10.700;2024-03-02T10:23:13;11.80;;;6.80;;
20527;SDS011;23612;50.894;10.700;2024-03-02T10:25:40;9.20;;;5.57;;
20527;SDS011;23612;50.894;10.700;2024-03-02T10:28:06;7.78;;;5.15;;
20527;SDS011;23612;50.894;10.700;2024-03-02T10:30:32;8.80;;;5.72;;
20527;SDS011;23612;50.894;10.700;2024-03-02T10:32:58;25.35;;;6.53;;
20527;SDS011;23612;50.894;10.700;2024-03-02T10:35:24;6.70;;;5.35;;
20527;SDS011;23612;50.894;10.700;2024-03-02T10:37:54;10.43;;;5.40;;
20527;SDS011;23612;50.894;10.700;2024-03-02T10:40:23;7.18;;;5.88;;
20527;SDS011;23612;50.894;10.700;2024-03-02T10:42:49;7.80;;;5.30;;
20527;SDS011;23612;50.894;10.700;2024-03-02T10:45:16;7.07;;;5.43;;
20527;SDS011;23612;50.894;10.700;2024-03-02T10:47:44;5.97;;;4.18;;
20527;SDS011;23612;50.894;10.700;2024-03-02T10:50:12;6.32;;;3.97;;
20527;SDS011;23612;50.894;10.700;2024-03-02T10:52:37;5.35;;;4.13;;
20527;SDS011;23612;50.894;10.700;2024-03-02T10:55:04;6.05;;;4.70;;
20527;SDS011;23612;50.894;10.700;2024-03-02T11:00:21;8.20;;;6.22;;
20527;SDS011;23612;50.894;10.700;2024-03-02T11:02:55;9.75;;;6.78;;
20527;SDS011;23612;50.894;10.700;2024-03-02T11:05:31;9.35;;;7.47;;
20527;SDS011;23612;50.894;10.700;2024-03-02T11:08:02;7.68;;;6.05;;
20527;SDS011;23612;50.894;10.700;2024-03-02T11:10:40;9.30;;;5.85;;
20527;SDS011;23612;50.894;10.700;2024-03-02T11:13:11;9.63;;;5.25;;
20527;SDS011;23612;50.894;10.700;2024-03-02T11:15:37;7.97;;;4.20;;
20527;SDS011;23612;50.894;10.700;2024-03-02T11:18:05;11.15;;;3.97;;
20527;SDS011;23612;50.894;10.700;2024-03-02T11:20:34;5.15;;;3.47;;
20527;SDS011;23612;50.894;10.700;2024-03-02T11:23:06;4.43;;;3.63;;
20527;SDS011;23612;50.894;10.700;2024-03-02T11:25:32;3.80;;;3.40;;
20527;SDS011;23612;50.894;10.700;2024-03-02T11:28:02;3.58;;;2.40;;
20527;SDS011;23612;50.894;10.700;2024-03-02T11:32:57;2.13;;;2.03;;
20527;SDS011;23612;50.894;10.700;2024-03-02T11:35:33;3.15;;;2.08;;
20527;SDS011;23612;50.894;10.700;2024-03-02T11:37:59;1.48;;;1.38;;
20527;SDS011;23612;50.894;10.700;2024-03-02T11:40:28;4.45;;;1.98;;
20527;SDS011;23612;50.894;10.700;2024-03-02T11:42:54;12.80;;;11.00;;
20527;SDS011;23612;50.894;10.700;2024-03-02T11:45:23;4.82;;;2.70;;
20527;SDS011;23612;50.894;10.700;2024-03-02T11:47:50;4.20;;;2.10;;
20527;SDS011;23612;50.894;10.700;2024-03-02T11:50:28;5.50;;;2.65;;
20527;SDS011;23612;50.894;10.700;2024-03-02T11:52:54;3.28;;;2.78;;
20527;SDS011;23612;50.894;10.700;2024-03-02T11:55:21;4.22;;;3.08;;
20527;SDS011;23612;50.894;10.700;2024-03-02T11:57:47;3.65;;;3.17;;
20527;SDS011;23612;50.894;10.700;2024-03-02T12:00:18;7.38;;;3.50;;
20527;SDS011;23612;50.894;10.700;2024-03-02T12:02:45;3.95;;;3.55;;
20527;SDS011;23612;50.894;10.700;2024-03-02T12:05:14;4.95;;;3.45;;
20527;SDS011;23612;50.894;10.700;2024-03-02T12:07:41;7.15;;;3.65;;
20527;SDS011;23612;50.894;10.700;2024-03-02T12:10:08;5.43;;;4.15;;
20527;SDS011;23612;50.894;10.700;2024-03-02T12:12:33;5.05;;;3.72;;
20527;SDS011;23612;50.894;10.700;2024-03-02T12:14:59;5.57;;;4.05;;
20527;SDS011;23612;50.894;10.700;2024-03-02T12:17:25;5.07;;;3.60;;
20527;SDS011;23612;50.894;10.700;2024-03-02T12:19:51;5.05;;;3.58;;
20527;SDS011;23612;50.894;10.700;2024-03-02T12:22:17;7.18;;;3.63;;
20527;SDS011;23612;50.894;10.700;2024-03-02T12:24:43;3.70;;;3.10;;
20527;SDS011;23612;50.894;10.700;2024-03-02T12:27:12;4.53;;;3.25;;
20527;SDS011;23612;50.894;10.700;2024-03-02T12:29:39;3.70;;;3.10;;
20527;SDS011;23612;50.894;10.700;2024-03-02T12:32:05;9.43;;;3.10;;
20527;SDS011;23612;50.894;10.700;2024-03-02T12:34:31;3.58;;;3.15;;
20527;SDS011;23612;50.894;10.700;2024-03-02T12:36:57;4.00;;;3.22;;
20527;SDS011;23612;50.894;10.700;2024-03-02T12:39:22;4.95;;;3.33;;
20527;SDS011;23612;50.894;10.700;2024-03-02T12:41:48;6.32;;;4.60;;
20527;SDS011;23612;50.894;10.700;2024-03-02T12:44:15;4.65;;;2.90;;
20527;SDS011;23612;50.894;10.700;2024-03-02T12:46:41;8.05;;;5.32;;
20527;SDS011;23612;50.894;10.700;2024-03-02T12:49:11;5.43;;;3.90;;
20527;SDS011;23612;50.894;10.700;2024-03-02T12:51:39;3.50;;;3.20;;
20527;SDS011;23612;50.894;10.700;2024-03-02T12:54:08;6.25;;;2.70;;
20527;SDS011;23612;50.894;10.700;2024-03-02T12:56:35;3.72;;;3.30;;
20527;SDS011;23612;50.894;10.700;2024-03-02T12:59:01;3.80;;;3.28;;
20527;SDS011;23612;50.894;10.700;2024-03-02T13:01:26;3.15;;;2.47;;
20527;SDS011;23612;50.894;10.700;2024-03-02T13:03:52;3.65;;;3.10;;
20527;SDS011;23612;50.894;10.700;2024-03-02T13:06:20;5.63;;;5.13;;
20527;SDS011;23612;50.894;10.700;2024-03-02T13:08:45;6.68;;;5.97;;
20527;SDS011;23612;50.894;10.700;2024-03-02T13:11:14;3.95;;;3.00;;
20527;SDS011;23612;50.894;10.700;2024-03-02T13:13:41;3.67;;;2.42;;
20527;SDS011;23612;50.894;10.700;2024-03-02T13:16:08;3.88;;;2.85;;
20527;SDS011;23612;50.894;10.700;2024-03-02T13:18:34;3.47;;;3.10;;
20527;SDS011;23612;50.894;10.700;2024-03-02T13:21:00;2.45;;;2.25;;
20527;SDS011;23612;50.894;10.700;2024-03-02T13:23:25;3.53;;;3.22;;
20527;SDS011;23612;50.894;10.700;2024-03-02T13:25:51;3.13;;;2.83;;
20527;SDS011;23612;50.894;10.700;2024-03-02T13:28:16;3.78;;;2.90;;
20527;SDS011;23612;50.894;10.700;2024-03-02T13:30:42;3.17;;;2.95;;
20527;SDS011;23612;50.894;10.700;2024-03-02T13:33:08;3.42;;;3.13;;
20527;SDS011;23612;50.894;10.700;2024-03-02T13:35:33;3.10;;;2.63;;
20527;SDS011;23612;50.894;10.700;2024-03-02T13:37:59;5.63;;;2.90;;
20527;SDS011;23612;50.894;10.700;2024-03-02T13:40:24;3.70;;;2.40;;
20527;SDS011;23612;50.894;10.700;2024-03-02T13:42:50;2.25;;;2.05;;
20527;SDS011;23612;50.894;10.700;2024-03-02T13:45:16;1.75;;;1.63;;
20527;SDS011;23612;50.894;10.700;2024-03-02T13:47:43;1.40;;;1.30;;
20527;SDS011;23612;50.894;10.700;2024-03-02T13:50:08;1.73;;;1.50;;
20527;SDS011;23612;50.894;10.700;2024-03-02T13:52:34;1.10;;;1.10;;
20527;SDS011;23612;50.894;10.700;2024-03-02T13:54:59;7.03;;;1.48;;
20527;SDS011;23612;50.894;10.700;2024-03-02T13:57:25;24.77;;;2.03;;
20527;SDS011;23612;50.894;10.700;2024-03-02T13:59:50;1.70;;;1.60;;
20527;SDS011;23612;50.894;10.700;2024-03-02T14:02:17;2.15;;;1.95;;
20527;SDS011;23612;50.894;10.700;2024-03-02T14:04:43;2.67;;;2.40;;
20527;SDS011;23612;50.894;10.700;2024-03-02T14:07:08;4.25;;;2.00;;
20527;SDS011;23612;50.894;10.700;2024-03-02T14:09:35;1.42;;;1.33;;
20527;SDS011;23612;50.894;10.700;2024-03-02T14:12:01;2.90;;;1.33;;
20527;SDS011;23612;50.894;10.700;2024-03-02T14:14:27;2.85;;;1.70;;
20527;SDS011;23612;50.894;10.700;2024-03-02T14:16:53;1.77;;;1.50;;
20527;SDS011;23612;50.894;10.700;2024-03-02T14:19:20;2.60;;;1.55;;